Time;durP1;ratioP1;P1;durP2;ratioP2;P2;SDS_P1;SDS_P2;PMS_P1;PMS_P2;Temp;Humidity;BMP_temperature;BMP_pressure;BME280_temperature;BME280_humidity;BME280_pressure;Samples;Min_cycle;Max_cycle;Signal;HPM_P1;HPM_P2
2021/07/01 02:47:56;;;;;;;1.60;1.50;;;13.50;99.90;;;;;;5134387;23;96138;-82
2021/07/01 02:50:22;;;;;;;1.80;1.70;;;13.50;99.90;;;;;;4917329;28;93076;-83
2021/07/01 02:52:48;;;;;;;1.73;1.60;;;13.50;99.90;;;;;;4919346;28;91278;-81
2021/07/01 02:55:14;;;;;;;2.00;1.50;;;13.60;99.90;;;;;;4901872;28;92260;-83
2021/07/01 02:57:39;;;;;;;2.80;1.75;;;13.60;99.90;;;;;;4898495;28;92040;-79
2021/07/01 03:00:11;;;;;;;2.40;2.20;;;13.60;99.90;;;;;;4910615;28;91331;-84
2021/07/01 03:02:37;;;;;;;1.92;1.58;;;13.70;99.90;;;;;;4926245;28;91338;-79
2021/07/01 03:05:04;;;;;;;1.77;1.67;;;13.70;99.90;;;;;;4923722;28;92410;-81
2021/07/01 03:07:29;;;;;;;2.00;1.80;;;13.60;99.90;;;;;;4922643;28;91838;-80
2021/07/01 03:09:55;;;;;;;2.50;1.67;;;13.60;99.90;;;;;;4922725;28;91125;-82
2021/07/01 03:12:21;;;;;;;2.85;2.10;;;13.10;99.90;;;;;;4923169;28;91353;-80
2021/07/01 03:14:58;;;;;;;2.75;2.10;;;13.50;99.90;;;;;;4916607;28;92723;-82
2021/07/01 03:17:24;;;;;;;2.55;1.80;;;13.60;99.90;;;;;;4909250;28;92264;-82
2021/07/01 03:19:49;;;;;;;2.15;1.95;;;13.50;99.90;;;;;;4904245;28;91871;-82
2021/07/01 03:22:15;;;;;;;2.58;1.98;;;13.40;99.90;;;;;;4895347;28;92126;-82
2021/07/01 03:24:41;;;;;;;3.30;2.38;;;13.40;99.90;;;;;;4909429;28;92554;-81
2021/07/01 03:27:07;;;;;;;2.78;2.08;;;13.50;99.90;;;;;;4911404;28;92141;-81
2021/07/01 03:29:33;;;;;;;2.30;2.05;;;13.40;99.90;;;;;;4908821;28;91847;-82
2021/07/01 03:31:58;;;;;;;2.40;2.20;;;13.50;99.90;;;;;;4908586;28;91190;-84
2021/07/01 03:34:24;;;;;;;5.75;2.13;;;13.50;99.90;;;;;;4910484;28;92335;-82
2021/07/01 03:36:50;;;;;;;2.22;2.10;;;13.50;99.90;;;;;;4910119;28;91504;-80
2021/07/01 03:39:16;;;;;;;2.75;2.03;;;13.50;99.90;;;;;;4908967;28;92788;-82
2021/07/01 03:41:42;;;;;;;1.90;1.65;;;13.50;99.90;;;;;;4911150;28;92035;-84
2021/07/01 03:44:09;;;;;;;2.30;2.10;;;13.50;99.90;;;;;;4908887;28;91738;-84
2021/07/01 03:46:35;;;;;;;2.15;2.00;;;13.50;99.90;;;;;;4904887;28;92812;-82
2021/07/01 03:49:00;;;;;;;2.53;2.33;;;13.50;99.90;;;;;;4899986;28;92037;-83
2021/07/01 03:51:26;;;;;;;4.65;2.42;;;13.50;99.90;;;;;;4894378;28;92156;-83
2021/07/01 03:53:52;;;;;;;1.90;1.77;;;13.50;99.90;;;;;;4900190;28;92786;-84
2021/07/01 03:56:18;;;;;;;2.92;1.98;;;13.50;99.90;;;;;;4899184;28;93027;-84
2021/07/01 03:58:43;;;;;;;2.22;2.03;;;13.60;99.90;;;;;;4888937;28;91985;-84
2021/07/01 04:01:09;;;;;;;2.67;2.10;;;13.50;99.90;;;;;;4897191;28;91990;-82
2021/07/01 04:03:35;;;;;;;5.15;2.20;;;13.50;99.90;;;;;;4878023;28;93165;-82
2021/07/01 04:06:02;;;;;;;2.25;2.05;;;13.50;99.90;;;;;;4885784;28;96604;-83
2021/07/01 04:08:28;;;;;;;2.03;1.80;;;13.50;99.90;;;;;;4899748;28;91983;-86
2021/07/01 04:10:54;;;;;;;2.15;1.95;;;13.50;99.90;;;;;;4900079;28;92117;-82
2021/07/01 04:13:19;;;;;;;3.65;1.83;;;13.40;99.90;;;;;;4893639;28;92504;-82
2021/07/01 04:15:45;;;;;;;1.90;1.75;;;13.40;99.90;;;;;;4895504;28;92002;-83
2021/07/01 04:18:15;;;;;;;3.13;2.00;;;13.40;99.90;;;;;;4896721;28;91554;-81
2021/07/01 04:20:42;;;;;;;2.30;2.10;;;13.40;99.90;;;;;;4899787;28;91014;-83
2021/07/01 04:23:10;;;;;;;1.95;1.70;;;13.50;99.90;;;;;;4902398;28;92250;-82
2021/07/01 04:25:36;;;;;;;2.05;1.48;;;13.50;99.90;;;;;;4894344;28;91896;-82
2021/07/01 04:28:03;;;;;;;1.58;1.48;;;13.50;99.90;;;;;;4898037;28;92916;-83
2021/07/01 04:30:29;;;;;;;1.65;1.55;;;13.60;99.90;;;;;;4898621;28;92449;-82
2021/07/01 04:32:56;;;;;;;2.58;1.35;;;13.40;99.90;;;;;;4898836;28;93096;-83
2021/07/01 04:35:22;;;;;;;1.40;1.30;;;13.50;99.90;;;;;;4888317;28;92352;-84
2021/07/01 04:37:47;;;;;;;1.40;1.30;;;13.40;99.90;;;;;;4898296;28;91267;-84
2021/07/01 04:40:13;;;;;;;1.55;1.42;;;13.40;99.90;;;;;;4893831;28;91592;-83
2021/07/01 04:42:40;;;;;;;1.65;1.40;;;13.30;99.90;;;;;;4893679;28;92500;-82
2021/07/01 04:45:08;;;;;;;1.70;1.60;;;13.20;99.90;;;;;;4901272;28;91028;-80
2021/07/01 04:47:34;;;;;;;1.80;1.70;;;13.20;99.90;;;;;;4903614;28;91418;-80
2021/07/01 04:50:02;;;;;;;1.30;1.20;;;13.20;99.90;;;;;;4897495;28;91268;-83
2021/07/01 04:52:28;;;;;;;1.40;1.30;;;13.20;99.90;;;;;;4898267;28;93186;-81
2021/07/01 04:54:54;;;;;;;1.27;1.17;;;13.20;99.90;;;;;;4904849;28;93019;-84
2021/07/01 04:57:19;;;;;;;2.65;1.40;;;13.20;99.90;;;;;;4887175;28;91808;-81
2021/07/01 04:59:45;;;;;;;1.58;1.48;;;13.20;99.90;;;;;;4878673;29;92082;-80
2021/07/01 05:02:11;;;;;;;3.15;1.40;;;13.20;99.90;;;;;;4872737;29;91896;-82
2021/07/01 05:04:36;;;;;;;3.78;1.20;;;13.20;99.90;;;;;;4872549;28;91297;-83
2021/07/01 05:07:02;;;;;;;2.22;1.52;;;13.20;99.90;;;;;;4892683;28;91100;-83
2021/07/01 05:09:28;;;;;;;1.50;1.33;;;13.20;99.90;;;;;;4889984;28;91062;-82
2021/07/01 05:11:55;;;;;;;1.35;1.10;;;13.20;99.90;;;;;;4872796;28;92763;-82
2021/07/01 05:14:21;;;;;;;2.10;1.50;;;13.20;99.90;;;;;;4889391;28;92277;-82
2021/07/01 05:16:48;;;;;;;1.38;1.30;;;13.10;99.90;;;;;;4889384;28;92706;-83
2021/07/01 05:19:13;;;;;;;1.60;1.50;;;13.20;99.90;;;;;;4890665;28;91293;-84
2021/07/01 05:21:39;;;;;;;1.50;1.40;;;13.10;99.90;;;;;;4892660;28;91884;-83
2021/07/01 05:24:06;;;;;;;1.95;1.08;;;13.10;99.90;;;;;;4892993;28;91877;-81
2021/07/01 05:26:32;;;;;;;1.10;1.10;;;13.10;99.90;;;;;;4894067;28;91879;-83
2021/07/01 05:28:58;;;;;;;1.35;1.25;;;13.10;99.90;;;;;;4893431;28;92100;-83
2021/07/01 05:31:23;;;;;;;2.72;1.33;;;13.30;99.90;;;;;;4893540;28;91771;-81
2021/07/01 05:33:49;;;;;;;1.80;1.30;;;13.30;99.90;;;;;;4891120;28;94653;-83
2021/07/01 05:36:15;;;;;;;1.30;1.20;;;13.40;99.90;;;;;;4890849;28;91730;-81
2021/07/01 05:38:41;;;;;;;1.38;1.27;;;13.50;99.90;;;;;;4880186;28;92122;-83
2021/07/01 05:41:06;;;;;;;1.20;1.20;;;13.50;99.90;;;;;;4889132;28;92905;-83
2021/07/01 05:43:32;;;;;;;2.30;1.10;;;13.60;99.90;;;;;;4890303;28;92242;-83
2021/07/01 05:45:58;;;;;;;1.83;1.23;;;13.70;99.90;;;;;;4892074;28;91334;-84
2021/07/01 05:48:26;;;;;;;1.15;1.02;;;13.80;99.90;;;;;;4909545;28;91569;-82
2021/07/01 05:56:36;;;;;;;1.27;1.20;;;13.90;99.90;;;;;;4867545;29;91276;-80
2021/07/01 05:59:06;;;;;;;1.40;1.30;;;13.90;99.90;;;;;;4915996;28;90583;-81
2021/07/01 06:01:33;;;;;;;2.20;1.27;;;14.00;99.90;;;;;;4912400;28;92295;-82
2021/07/01 06:03:58;;;;;;;1.85;1.30;;;14.00;99.90;;;;;;4924435;28;91529;-80
2021/07/01 06:06:25;;;;;;;1.17;1.10;;;14.00;99.90;;;;;;4924062;28;92517;-82
2021/07/01 06:08:52;;;;;;;1.13;1.08;;;14.10;99.90;;;;;;4909679;28;91886;-84
2021/07/01 06:11:18;;;;;;;1.40;1.30;;;14.10;99.90;;;;;;4907131;28;94129;-82
2021/07/01 06:13:45;;;;;;;1.30;1.20;;;14.10;99.90;;;;;;4913568;28;92335;-83
2021/07/01 06:16:12;;;;;;;1.73;1.42;;;14.10;99.90;;;;;;4902275;28;92040;-83
2021/07/01 06:18:42;;;;;;;1.70;1.33;;;14.10;99.90;;;;;;4913129;28;92296;-82
2021/07/01 06:21:09;;;;;;;1.70;1.42;;;14.10;99.90;;;;;;4911778;28;94202;-83
2021/07/01 06:23:39;;;;;;;1.33;1.23;;;14.00;99.90;;;;;;4894874;28;93148;-82
2021/07/01 06:26:06;;;;;;;1.45;1.35;;;14.10;99.90;;;;;;4907127;28;91874;-83
2021/07/01 06:28:37;;;;;;;4.80;1.17;;;14.10;99.90;;;;;;4895146;28;91692;-83
2021/07/01 06:31:03;;;;;;;1.48;1.38;;;14.10;99.90;;;;;;4895102;28;93214;-83
2021/07/01 06:33:29;;;;;;;1.88;1.30;;;14.10;99.90;;;;;;4894009;28;93131;-83
2021/07/01 06:35:55;;;;;;;1.08;1.08;;;14.10;99.90;;;;;;4895716;28;91243;-84
2021/07/01 06:38:23;;;;;;;1.90;1.10;;;14.20;99.90;;;;;;4895680;28;91952;-83
2021/07/01 06:40:51;;;;;;;1.60;1.50;;;14.10;99.90;;;;;;4909151;28;92386;-83
2021/07/01 06:43:25;;;;;;;2.72;1.80;;;14.20;99.90;;;;;;4902840;28;92896;-82
2021/07/01 06:45:55;;;;;;;3.17;1.70;;;14.20;99.90;;;;;;4906957;28;91589;-81
2021/07/01 06:48:23;;;;;;;1.70;1.60;;;14.20;99.90;;;;;;4890411;28;90874;-84
2021/07/01 06:50:52;;;;;;;1.83;1.40;;;14.20;99.90;;;;;;4875154;28;92081;-82
2021/07/01 06:53:20;;;;;;;2.08;1.20;;;14.20;99.90;;;;;;4872468;28;91679;-83
2021/07/01 06:55:46;;;;;;;2.38;1.30;;;14.20;99.90;;;;;;4890116;28;92819;-82
2021/07/01 06:58:12;;;;;;;1.05;1.05;;;14.20;99.90;;;;;;4891857;28;92070;-83
2021/07/01 07:00:38;;;;;;;1.20;1.20;;;14.30;99.90;;;;;;4887636;28;92209;-83
2021/07/01 07:03:05;;;;;;;1.85;1.73;;;14.30;99.90;;;;;;4879390;28;91529;-82
2021/07/01 07:05:31;;;;;;;1.35;1.25;;;14.40;99.90;;;;;;4888079;28;91328;-82
2021/07/01 07:07:58;;;;;;;1.52;1.38;;;14.40;99.90;;;;;;4891772;28;92059;-82
2021/07/01 07:10:24;;;;;;;1.73;1.63;;;14.50;99.90;;;;;;4887980;28;92536;-82
2021/07/01 07:12:54;;;;;;;1.65;1.42;;;14.60;99.90;;;;;;4891719;28;91317;-83
2021/07/01 07:15:28;;;;;;;1.20;1.20;;;14.70;99.90;;;;;;4886080;28;92152;-84
2021/07/01 07:18:09;;;;;;;1.60;1.50;;;14.70;99.90;;;;;;4891667;28;92043;-82
2021/07/01 07:20:40;;;;;;;1.25;1.13;;;14.70;99.90;;;;;;4861923;28;93641;-82
2021/07/01 07:23:08;;;;;;;1.27;1.20;;;14.80;99.90;;;;;;4890734;28;92806;-82
2021/07/01 07:25:41;;;;;;;1.63;1.30;;;14.80;99.90;;;;;;4890488;28;91936;-84
2021/07/01 07:28:09;;;;;;;2.10;1.00;;;14.90;99.90;;;;;;4888591;28;91896;-82
2021/07/01 07:30:35;;;;;;;0.93;0.93;;;14.90;99.90;;;;;;4888059;28;92265;-82
2021/07/01 07:33:05;;;;;;;1.60;1.50;;;15.00;99.90;;;;;;4885331;28;92095;-83
2021/07/01 07:35:31;;;;;;;0.90;0.90;;;15.00;99.90;;;;;;4887569;28;92095;-83
2021/07/01 07:37:58;;;;;;;1.17;1.10;;;15.00;99.90;;;;;;4889903;28;91324;-82
2021/07/01 07:40:24;;;;;;;1.20;1.20;;;14.90;99.90;;;;;;4889883;28;92774;-83
2021/07/01 07:42:50;;;;;;;1.15;1.15;;;14.90;99.90;;;;;;4898092;28;92185;-82
2021/07/01 07:45:16;;;;;;;1.45;1.35;;;14.90;99.90;;;;;;4888052;28;92775;-82
2021/07/01 07:47:42;;;;;;;1.35;1.10;;;15.00;99.90;;;;;;4902252;28;91826;-83
2021/07/01 07:50:09;;;;;;;4.45;1.92;;;15.00;99.90;;;;;;4907996;28;92191;-82
2021/07/01 07:52:48;;;;;;;1.10;1.10;;;15.00;99.90;;;;;;4912515;28;92121;-83
2021/07/01 07:55:16;;;;;;;1.77;1.25;;;15.10;99.90;;;;;;4912028;28;91963;-81
2021/07/01 07:57:45;;;;;;;1.25;1.25;;;15.10;99.90;;;;;;4908880;28;91886;-82
2021/07/01 08:00:11;;;;;;;1.33;1.23;;;15.00;99.90;;;;;;4907221;28;91909;-84
2021/07/01 08:03:06;;;;;;;1.60;1.10;;;15.10;99.90;;;;;;4908070;28;92424;-82
2021/07/01 08:05:33;;;;;;;1.75;1.23;;;15.20;99.90;;;;;;4905772;28;91976;-83
2021/07/01 08:07:59;;;;;;;1.10;1.10;;;15.30;99.90;;;;;;4906864;28;91673;-82
2021/07/01 08:10:31;;;;;;;1.73;1.50;;;15.50;99.90;;;;;;4904901;28;93241;-82
2021/07/01 08:13:04;;;;;;;1.90;1.80;;;15.60;99.90;;;;;;4905104;28;92926;-83
2021/07/01 08:15:30;;;;;;;1.48;1.20;;;15.60;99.90;;;;;;4905607;28;91904;-84
2021/07/01 08:17:57;;;;;;;1.20;1.20;;;15.60;99.90;;;;;;4903530;28;92080;-82
2021/07/01 08:20:23;;;;;;;1.23;1.13;;;15.60;99.90;;;;;;4905915;28;93281;-83
2021/07/01 08:22:54;;;;;;;3.17;1.40;;;15.60;99.90;;;;;;4907946;28;91927;-83
2021/07/01 08:25:21;;;;;;;2.40;1.20;;;15.60;99.90;;;;;;4905343;28;91975;-83
2021/07/01 08:27:49;;;;;;;3.28;1.30;;;15.50;99.90;;;;;;4906840;28;90936;-84
2021/07/01 08:30:17;;;;;;;1.30;1.20;;;15.50;99.90;;;;;;4897726;28;92078;-84
2021/07/01 08:32:46;;;;;;;1.38;1.10;;;15.50;99.90;;;;;;4905712;28;92442;-83
2021/07/01 08:35:15;;;;;;;1.10;1.00;;;15.40;99.90;;;;;;4907982;28;93068;-83
2021/07/01 08:37:45;;;;;;;2.83;1.35;;;15.40;99.90;;;;;;4898402;28;91968;-84
2021/07/01 08:40:14;;;;;;;1.27;1.17;;;15.50;99.90;;;;;;4914683;28;92575;-83
2021/07/01 08:42:40;;;;;;;1.20;1.10;;;15.50;99.90;;;;;;4913103;28;92041;-83
2021/07/01 08:45:11;;;;;;;1.55;1.45;;;15.50;99.90;;;;;;4913125;28;91897;-84
2021/07/01 08:47:40;;;;;;;1.13;1.10;;;15.60;99.90;;;;;;4905999;28;92689;-83
2021/07/01 08:50:17;;;;;;;1.20;1.10;;;15.70;99.90;;;;;;4907669;28;92452;-82
2021/07/01 08:53:05;;;;;;;1.30;1.20;;;15.70;99.90;;;;;;4908048;28;92830;-84
2021/07/01 08:55:32;;;;;;;1.30;1.23;;;15.70;99.90;;;;;;4910031;28;93006;-84
2021/07/01 08:57:59;;;;;;;1.48;1.20;;;15.70;99.90;;;;;;4913624;28;92106;-83
2021/07/01 09:00:28;;;;;;;1.00;1.00;;;15.70;99.90;;;;;;4911190;28;93100;-83
2021/07/01 09:03:08;;;;;;;1.20;1.20;;;15.70;99.90;;;;;;4912901;28;94056;-83
2021/07/01 09:05:35;;;;;;;;;;;15.70;99.90;;;;;;4906696;28;91884;-81
2021/07/01 09:08:08;;;;;;;1.58;1.00;;;15.70;99.90;;;;;;4921682;28;92082;-82
2021/07/01 09:10:34;;;;;;;1.25;1.15;;;15.70;99.90;;;;;;4903835;28;92270;-84
2021/07/01 09:13:03;;;;;;;1.20;1.10;;;15.70;99.90;;;;;;4906413;28;95654;-83
2021/07/01 09:15:30;;;;;;;1.58;1.48;;;15.70;99.90;;;;;;4904912;28;92157;-83
2021/07/01 09:17:57;;;;;;;0.90;0.90;;;15.60;99.90;;;;;;4913431;28;90602;-82
2021/07/01 09:20:28;;;;;;;1.35;1.25;;;15.70;99.90;;;;;;4924604;28;92052;-83
2021/07/01 09:22:55;;;;;;;2.67;1.35;;;15.80;99.90;;;;;;4906072;28;92091;-83
2021/07/01 09:25:22;;;;;;;1.27;1.15;;;15.80;99.90;;;;;;4897005;28;92297;-82
2021/07/01 09:27:50;;;;;;;1.98;1.10;;;15.70;99.90;;;;;;4902375;28;92115;-82
2021/07/01 09:30:19;;;;;;;1.70;1.40;;;15.70;99.90;;;;;;4908758;28;92344;-80
2021/07/01 09:32:45;;;;;;;1.00;1.00;;;15.70;99.90;;;;;;4910979;28;92190;-83
2021/07/01 09:35:12;;;;;;;1.33;1.25;;;15.70;99.90;;;;;;4890568;28;92042;-81
2021/07/01 09:37:46;;;;;;;0.88;0.88;;;15.80;99.90;;;;;;4903008;28;92027;-83
2021/07/01 09:40:14;;;;;;;1.17;1.13;;;15.80;99.90;;;;;;4898534;28;92076;-82
2021/07/01 09:42:41;;;;;;;1.20;1.20;;;15.90;99.90;;;;;;4895825;28;92084;-80
2021/07/01 09:45:09;;;;;;;1.48;1.38;;;16.10;99.90;;;;;;4899744;28;92055;-82
2021/07/01 09:47:43;;;;;;;1.15;1.15;;;16.30;99.90;;;;;;4898188;28;91566;-83
2021/07/01 09:50:10;;;;;;;1.05;1.05;;;16.30;99.90;;;;;;4883311;28;92930;-84
2021/07/01 09:52:43;;;;;;;1.27;1.10;;;16.00;99.90;;;;;;4890287;28;92660;-82
2021/07/01 09:55:10;;;;;;;1.50;1.35;;;15.90;99.90;;;;;;4881489;28;92094;-84
2021/07/01 09:57:39;;;;;;;1.33;1.15;;;15.70;99.90;;;;;;4890467;28;92063;-82
2021/07/01 10:00:12;;;;;;;1.63;1.40;;;15.60;99.90;;;;;;4905514;28;92164;-84
2021/07/01 10:02:39;;;;;;;0.93;0.93;;;15.60;99.90;;;;;;4888194;28;92465;-83
2021/07/01 10:05:07;;;;;;;2.58;1.52;;;15.70;99.90;;;;;;4890992;28;92076;-84
2021/07/01 10:07:33;;;;;;;1.60;1.50;;;15.80;99.90;;;;;;4889708;28;91459;-82
2021/07/01 10:10:11;;;;;;;2.47;1.80;;;16.10;99.90;;;;;;4890281;28;92157;-83
2021/07/01 10:12:49;;;;;;;1.50;1.40;;;16.50;99.90;;;;;;4887813;28;92226;-84
2021/07/01 10:35:35;;;;;;;1.85;1.45;;;17.20;99.90;;;;;;4886946;28;91987;-84
2021/07/01 10:38:07;;;;;;;1.52;1.42;;;17.20;99.90;;;;;;4882080;28;91342;-84
2021/07/01 10:40:39;;;;;;;1.58;1.30;;;17.10;99.90;;;;;;4887567;28;91945;-83
2021/07/01 10:43:06;;;;;;;1.63;1.50;;;17.30;99.90;;;;;;4883709;28;92114;-83
2021/07/01 10:45:33;;;;;;;1.58;1.48;;;17.60;99.90;;;;;;4878323;28;93222;-82
2021/07/01 10:48:19;;;;;;;1.65;1.55;;;18.20;99.90;;;;;;4886180;28;92906;-82
2021/07/01 10:50:46;;;;;;;1.52;1.42;;;18.60;99.90;;;;;;4878452;28;91960;-83
2021/07/01 10:53:33;;;;;;;1.30;1.20;;;18.60;99.40;;;;;;4882143;28;92542;-81
2021/07/01 10:56:16;;;;;;;1.50;1.40;;;18.40;99.80;;;;;;4890727;28;92306;-85
2021/07/01 10:58:44;;;;;;;1.42;1.33;;;18.30;99.90;;;;;;4898646;28;91965;-82
2021/07/01 11:01:24;;;;;;;1.30;1.20;;;18.40;99.90;;;;;;4907897;28;91863;-82
2021/07/01 11:04:05;;;;;;;1.30;1.20;;;18.50;99.40;;;;;;4891402;28;90719;-82
2021/07/01 11:06:31;;;;;;;2.42;1.23;;;18.60;99.90;;;;;;4869225;28;95655;-83
2021/07/01 11:08:57;;;;;;;1.52;1.42;;;18.70;98.30;;;;;;4893190;28;92015;-83
2021/07/01 11:11:24;;;;;;;1.15;1.15;;;18.90;98.90;;;;;;4899416;28;95363;-84
2021/07/01 11:13:59;;;;;;;1.50;1.40;;;19.50;96.60;;;;;;4881512;28;91657;-84
2021/07/01 11:16:38;;;;;;;1.63;1.52;;;19.50;96.80;;;;;;4889576;28;92253;-84
2021/07/01 11:19:44;;;;;;;2.35;1.40;;;20.10;95.20;;;;;;4891234;28;91285;-80
2021/07/01 11:22:12;;;;;;;1.52;1.42;;;20.20;94.00;;;;;;4890479;28;94342;-82
2021/07/01 11:24:43;;;;;;;1.55;1.45;;;20.10;93.60;;;;;;4887631;28;92053;-82
2021/07/01 11:27:09;;;;;;;1.30;1.20;;;20.10;93.00;;;;;;4882533;28;92095;-82
2021/07/01 11:29:35;;;;;;;1.88;1.30;;;20.40;93.70;;;;;;4883949;28;91421;-82
2021/07/01 11:32:01;;;;;;;1.40;1.35;;;20.20;92.40;;;;;;4892161;28;92105;-83
2021/07/01 11:34:44;;;;;;;1.55;1.27;;;20.20;93.00;;;;;;4873446;28;92028;-82
2021/07/01 11:37:10;;;;;;;1.45;1.35;;;20.10;92.20;;;;;;4889578;28;93424;-83
2021/07/01 11:39:36;;;;;;;1.40;1.30;;;19.60;93.10;;;;;;4891639;28;92898;-83
2021/07/01 11:42:04;;;;;;;1.20;1.10;;;19.20;93.90;;;;;;4888825;28;92175;-84
2021/07/01 11:44:34;;;;;;;2.35;1.50;;;18.90;94.40;;;;;;4890941;28;91921;-81
2021/07/01 11:47:01;;;;;;;1.43;1.33;;;18.90;95.00;;;;;;4896428;28;92378;-83
2021/07/01 11:49:32;;;;;;;1.48;1.38;;;18.80;95.80;;;;;;4909316;28;92019;-84
2021/07/01 11:52:00;;;;;;;1.50;1.40;;;18.60;94.80;;;;;;4909586;28;91983;-81
2021/07/01 11:54:28;;;;;;;1.33;1.23;;;18.40;95.80;;;;;;4911007;28;90604;-81
2021/07/01 11:57:00;;;;;;;1.40;1.30;;;18.10;96.00;;;;;;4903605;28;92265;-83
2021/07/01 11:59:30;;;;;;;1.60;1.50;;;18.10;97.00;;;;;;4910279;28;91884;-82
2021/07/01 12:01:57;;;;;;;1.60;1.50;;;18.20;96.40;;;;;;4909664;28;93369;-81
2021/07/01 12:04:35;;;;;;;1.67;1.58;;;18.30;97.00;;;;;;4909060;28;91560;-82
2021/07/01 12:07:26;;;;;;;1.60;1.40;;;18.50;96.20;;;;;;4891954;28;91921;-83
2021/07/01 12:09:54;;;;;;;1.52;1.42;;;18.60;94.10;;;;;;4908790;28;92040;-81
2021/07/01 12:12:26;;;;;;;1.50;1.40;;;18.60;94.50;;;;;;4906618;28;91996;-83
2021/07/01 12:15:06;;;;;;;1.48;1.38;;;18.60;94.40;;;;;;4902183;28;92600;-85
2021/07/01 12:18:06;;;;;;;3.13;2.95;;;18.40;95.90;;;;;;4901628;28;92954;-83
2021/07/01 12:20:37;;;;;;;1.67;1.58;;;18.80;94.50;;;;;;4902854;28;92302;-83
2021/07/01 12:23:11;;;;;;;1.77;1.67;;;18.80;94.40;;;;;;4903849;28;91978;-82
2021/07/01 12:25:37;;;;;;;1.70;1.60;;;18.80;93.90;;;;;;4905866;28;92105;-83
2021/07/01 12:28:17;;;;;;;2.13;1.63;;;18.60;94.20;;;;;;4909543;28;93031;-84
2021/07/01 12:31:04;;;;;;;3.05;2.85;;;17.90;96.60;;;;;;4895325;28;93059;-83
2021/07/01 12:33:49;;;;;;;2.22;1.52;;;18.40;95.20;;;;;;4890987;28;91900;-82
2021/07/01 12:36:25;;;;;;;2.15;1.73;;;18.20;95.80;;;;;;4900860;28;92128;-83
2021/07/01 12:39:03;;;;;;;1.80;1.70;;;18.10;96.10;;;;;;4900538;28;92769;-81
2021/07/01 12:41:30;;;;;;;2.63;1.60;;;17.90;95.60;;;;;;4908351;28;91961;-82
2021/07/01 12:44:03;;;;;;;1.67;1.58;;;17.80;96.10;;;;;;4893593;28;91962;-82
2021/07/01 12:46:45;;;;;;;1.80;1.70;;;17.60;96.00;;;;;;4897927;28;90719;-80
2021/07/01 12:49:32;;;;;;;1.75;1.65;;;17.60;97.10;;;;;;4872508;28;92003;-83
2021/07/01 12:52:12;;;;;;;4.05;2.15;;;17.50;97.30;;;;;;4887739;28;91963;-82
2021/07/01 12:54:38;;;;;;;1.90;1.80;;;17.60;97.80;;;;;;4878149;28;92880;-82
2021/07/01 12:57:11;;;;;;;2.67;1.58;;;17.70;98.40;;;;;;4875080;28;91712;-83
2021/07/01 12:59:46;;;;;;;1.60;1.42;;;17.60;98.00;;;;;;4879443;28;93727;-84
2021/07/01 13:02:18;;;;;;;1.50;1.40;;;17.60;98.40;;;;;;4875811;28;91976;-85
2021/07/01 13:05:20;;;;;;;1.50;1.40;;;17.40;98.10;;;;;;4896135;28;91958;-84
2021/07/01 13:07:48;;;;;;;2.03;1.92;;;17.40;98.20;;;;;;4877441;28;92087;-84
2021/07/01 13:10:14;;;;;;;1.98;1.60;;;17.30;97.90;;;;;;4889687;28;91954;-84
2021/07/01 13:12:45;;;;;;;1.83;1.50;;;17.30;98.70;;;;;;4888468;28;92313;-84
2021/07/01 13:15:13;;;;;;;2.67;1.90;;;17.60;98.10;;;;;;4887261;28;92158;-82
2021/07/01 13:17:39;;;;;;;1.60;1.50;;;17.60;97.40;;;;;;4897424;28;92112;-84
2021/07/01 13:20:09;;;;;;;2.38;1.73;;;17.80;97.30;;;;;;4889452;28;92981;-83
2021/07/01 13:22:41;;;;;;;2.58;1.92;;;18.20;97.00;;;;;;4886751;28;94812;-84
2021/07/01 13:25:17;;;;;;;1.98;1.77;;;18.40;96.20;;;;;;4894139;28;92144;-84
2021/07/01 13:27:53;;;;;;;2.22;2.00;;;18.50;96.80;;;;;;4895841;28;91556;-84
2021/07/01 13:30:28;;;;;;;1.73;1.63;;;18.50;96.40;;;;;;4896260;28;92024;-82
2021/07/01 13:33:16;;;;;;;2.22;1.75;;;18.30;96.60;;;;;;4902086;28;92352;-81
2021/07/01 13:35:47;;;;;;;1.73;1.60;;;18.40;97.40;;;;;;4891968;28;92013;-85
2021/07/01 13:38:20;;;;;;;1.70;1.60;;;18.20;97.10;;;;;;4897279;28;91160;-82
2021/07/01 13:40:47;;;;;;;1.65;1.55;;;18.10;97.10;;;;;;4899527;28;91562;-80
2021/07/01 13:43:18;;;;;;;2.65;1.60;;;18.00;97.20;;;;;;4903168;28;91811;-83
2021/07/01 13:45:46;;;;;;;2.33;1.92;;;17.80;98.00;;;;;;4890819;28;92927;-84
2021/07/01 13:48:23;;;;;;;1.95;1.83;;;17.70;98.70;;;;;;4896606;28;91788;-83
2021/07/01 13:51:03;;;;;;;2.00;1.90;;;17.50;99.90;;;;;;4907905;28;92882;-82
2021/07/01 13:53:31;;;;;;;2.50;2.30;;;17.30;99.90;;;;;;4909134;28;91873;-84
2021/07/01 13:55:57;;;;;;;2.83;2.28;;;17.20;99.90;;;;;;4909927;28;91719;-83
2021/07/01 13:58:27;;;;;;;2.17;1.98;;;17.00;99.90;;;;;;4910110;28;91952;-83
2021/07/01 14:00:55;;;;;;;4.05;2.03;;;17.00;99.90;;;;;;4912352;28;92048;-83
2021/07/01 14:03:32;;;;;;;1.77;1.67;;;16.90;99.90;;;;;;4912968;28;91919;-83
2021/07/01 14:06:12;;;;;;;1.92;1.60;;;16.90;99.90;;;;;;4912092;28;91981;-83
2021/07/01 14:08:56;;;;;;;1.60;1.50;;;17.00;99.90;;;;;;4912332;28;92466;-83
2021/07/01 14:11:21;;;;;;;1.65;1.55;;;17.10;99.90;;;;;;4923325;28;94173;-82
2021/07/01 14:14:10;;;;;;;2.17;1.98;;;17.30;99.90;;;;;;4907769;28;93017;-82
2021/07/01 14:16:38;;;;;;;1.83;1.73;;;17.60;99.90;;;;;;4916018;28;91995;-83
2021/07/01 14:19:10;;;;;;;1.70;1.48;;;18.00;99.90;;;;;;4910598;28;91998;-81
2021/07/01 14:21:44;;;;;;;1.65;1.55;;;18.50;99.40;;;;;;4905736;28;92486;-82
2021/07/01 14:24:15;;;;;;;3.25;3.05;;;19.30;99.40;;;;;;4900799;28;93135;-82
2021/07/01 14:26:52;;;;;;;2.15;1.70;;;19.00;96.50;;;;;;4908158;28;92145;-84
2021/07/01 14:29:22;;;;;;;1.60;1.50;;;19.10;97.10;;;;;;4908369;28;90767;-83
2021/07/01 14:31:48;;;;;;;1.60;1.50;;;19.30;96.90;;;;;;4910625;28;91906;-82
2021/07/01 14:34:15;;;;;;;1.88;1.77;;;19.40;96.40;;;;;;4918361;28;92080;-84
2021/07/01 14:36:53;;;;;;;1.75;1.65;;;19.60;94.90;;;;;;4913148;28;92950;-82
2021/07/01 14:39:23;;;;;;;1.67;1.58;;;19.80;95.00;;;;;;4913163;28;91250;-82
2021/07/01 14:42:03;;;;;;;1.58;1.48;;;20.00;95.00;;;;;;4903506;28;92732;-83
2021/07/01 14:44:29;;;;;;;1.65;1.55;;;20.30;94.10;;;;;;4908746;28;92255;-83
2021/07/01 14:46:55;;;;;;;2.28;1.48;;;20.60;93.50;;;;;;4912483;28;91960;-84
2021/07/01 14:49:34;;;;;;;1.77;1.67;;;20.90;92.30;;;;;;4906817;28;91465;-83
2021/07/01 14:52:04;;;;;;;1.70;1.50;;;21.00;91.30;;;;;;4913999;28;92629;-83
2021/07/01 14:54:32;;;;;;;2.88;1.67;;;21.20;91.90;;;;;;4900234;28;93312;-83
2021/07/01 14:57:01;;;;;;;1.70;1.60;;;21.00;90.60;;;;;;4912292;28;91839;-84
2021/07/01 14:59:47;;;;;;;2.47;1.83;;;20.50;91.70;;;;;;4908815;28;92471;-84
2021/07/01 15:02:15;;;;;;;2.28;1.80;;;20.10;91.80;;;;;;4906923;28;94821;-84
2021/07/01 15:04:46;;;;;;;1.80;1.63;;;19.70;92.70;;;;;;4912125;28;92933;-84
2021/07/01 15:07:17;;;;;;;2.13;1.92;;;19.50;93.70;;;;;;4903513;28;91939;-82
2021/07/01 15:09:49;;;;;;;1.60;1.50;;;19.40;94.30;;;;;;4902044;28;93201;-82
2021/07/01 15:15:52;;;;;;;1.85;1.75;;;19.20;95.30;;;;;;4908320;28;91997;-82
2021/07/01 15:18:38;;;;;;;2.13;1.90;;;18.90;96.00;;;;;;4904388;28;91213;-83
2021/07/01 15:21:28;;;;;;;1.90;1.80;;;18.90;96.20;;;;;;4943743;28;91347;-82
2021/07/01 15:24:22;;;;;;;1.92;1.83;;;19.00;96.50;;;;;;4932859;28;91684;-82
2021/07/01 15:26:54;;;;;;;;;;;18.90;98.20;;;;;;4911134;28;91216;-84
2021/07/01 15:29:41;;;;;;;1.70;1.60;;;18.90;97.30;;;;;;4919976;28;92981;-82
2021/07/01 15:32:14;;;;;;;1.98;1.67;;;18.90;96.70;;;;;;4909642;28;92515;-83
2021/07/01 15:34:45;;;;;;;2.00;1.90;;;18.90;96.10;;;;;;4926560;28;92785;-81
2021/07/01 15:37:50;;;;;;;2.10;1.90;;;19.00;97.10;;;;;;4910100;28;91350;-82
2021/07/01 15:40:20;;;;;;;3.08;1.77;;;19.10;97.30;;;;;;4922366;28;91290;-83
2021/07/01 15:42:50;;;;;;;2.08;1.95;;;19.10;97.10;;;;;;4907877;28;91973;-81
2021/07/01 15:45:16;;;;;;;3.10;3.00;;;18.70;99.20;;;;;;4941706;23;91823;-81
2021/07/01 15:47:48;;;;;;;1.80;1.70;;;19.00;96.70;;;;;;4853800;29;91901;-81
2021/07/01 15:50:16;;;;;;;2.20;2.10;;;19.10;96.90;;;;;;4852564;29;91891;-80
2021/07/01 15:56:04;;;;;;;1.80;1.70;;;19.20;96.20;;;;;;4849078;29;93553;-82
2021/07/01 16:08:54;;;;;;;2.33;2.15;;;19.20;93.20;;;;;;4832615;29;91886;-82
2021/07/01 16:11:21;;;;;;;1.83;1.60;;;19.20;95.10;;;;;;4851621;29;91867;-81
2021/07/01 16:13:47;;;;;;;1.88;1.77;;;19.20;94.10;;;;;;4845352;29;91760;-82
2021/07/01 16:22:58;;;;;;;2.10;2.00;;;19.20;92.90;;;;;;4848134;29;91767;-81
2021/07/01 16:25:25;;;;;;;2.58;2.25;;;19.20;93.90;;;;;;4851555;29;92806;-81
2021/07/01 16:27:52;;;;;;;1.90;1.80;;;19.20;94.60;;;;;;4854010;29;91769;-81
2021/07/01 16:30:18;;;;;;;2.65;2.00;;;19.20;95.60;;;;;;4852774;29;92691;-83
2021/07/01 16:32:44;;;;;;;2.20;2.00;;;19.30;97.20;;;;;;4854072;29;91751;-83
2021/07/01 16:35:10;;;;;;;2.17;1.98;;;19.40;97.90;;;;;;4854188;29;91757;-81
2021/07/01 16:37:53;;;;;;;1.95;1.75;;;19.40;98.20;;;;;;4867787;29;91682;-84
2021/07/01 16:40:18;;;;;;;3.17;2.13;;;19.60;98.30;;;;;;4853712;29;91883;-82